Love Boat — OT3861 — position and weather

sailwx.info

Track history (hours):
 
Tides and Currents Weather Stations Pressure Air Temp Water Temp Dewpoint Dewpoint Depression Visibility Wind Speed Wind Dir Waves Ship Positions

Love Boat

Last reported at 2016-Jun-26 15:33 UTC. Time now 2016-Jun-26 15:38 UTC.
Position N 50°35' E 005°24'.

Length 110 m.

Type: Ship. MMSI: 205386190.

Date/timePositionNaut miles runAvg speedWind from/ knotsBaromVisibWave heightAir tempDewpointWater temp
2016-Jun-26 15:33N 50°35' E 005°24'0 0.0
2016-Jun-26 14:33N 50°35' E 005°24'0 0.0
2016-Jun-26 13:27N 50°35' E 005°24'0 0.0
2016-Jun-26 12:32N 50°35' E 005°24'0 0.0
2016-Jun-26 11:32N 50°35' E 005°24'0 0.0
2016-Jun-26 10:27N 50°35' E 005°24'0 0.0
2016-Jun-26 09:33N 50°35' E 005°24'0 0.0
2016-Jun-26 08:32N 50°35' E 005°24'0 0.0
2016-Jun-26 07:33N 50°35' E 005°24'1 0.0
2016-Jun-25 17:24N 50°35' E 005°24'0 0.0
2016-Jun-25 15:23N 50°35' E 005°24'0 0.0
2016-Jun-25 14:21N 50°35' E 005°24'0 0.0
2016-Jun-25 13:32N 50°35' E 005°24'0 0.0
2016-Jun-25 12:19N 50°35' E 005°24'0 0.0
2016-Jun-25 11:33N 50°35' E 005°24'0 0.0
2016-Jun-25 10:30N 50°35' E 005°24'0 0.0
2016-Jun-25 09:31N 50°35' E 005°24'0 0.0
2016-Jun-25 08:14N 50°35' E 005°24'0 0.0
2016-Jun-25 07:31N 50°35' E 005°24'0 0.0
2016-Jun-25 06:30N 50°35' E 005°24'0 0.0
2016-Jun-25 04:29N 50°35' E 005°24'0 0.0
2016-Jun-25 03:31N 50°35' E 005°24'0 0.0
2016-Jun-25 02:31N 50°35' E 005°24'0 0.0
2016-Jun-25 01:32N 50°35' E 005°24'0 0.0
2016-Jun-24 23:33N 50°35' E 005°24'0 0.0
2016-Jun-24 22:30N 50°35' E 005°24'0 0.0
2016-Jun-24 21:08N 50°35' E 005°24'0 0.0
2016-Jun-24 19:33N 50°35' E 005°24'0 0.0
2016-Jun-24 18:33N 50°35' E 005°24'0 0.0
2016-Jun-24 17:25N 50°35' E 005°24'0 0.0
2016-Jun-24 15:33N 50°35' E 005°24'0 0.0
2016-Jun-24 14:30N 50°35' E 005°24'0 0.0
2016-Jun-24 13:32N 50°35' E 005°24'0 0.0
2016-Jun-24 12:27N 50°35' E 005°24'0 0.0
2016-Jun-24 11:29N 50°35' E 005°24'0 0.0
2016-Jun-24 10:32N 50°35' E 005°24'0 0.0
2016-Jun-24 09:33N 50°35' E 005°24'0 0.0
2016-Jun-24 08:33N 50°35' E 005°24'0 0.3
2016-Jun-24 07:30N 50°35' E 005°25'9 3.0
2016-Jun-24 04:32N 50°39' E 005°37'45 2.8
2016-Jun-23 12:11N 51°11' E 004°45'6 6.4
2016-Jun-23 11:18N 51°12' E 004°37'4 3.3
2016-Jun-23 10:12N 51°14' E 004°31'3 4.8
2016-Jun-23 09:33N 51°14' E 004°26'6 6.0
2016-Jun-23 08:33N 51°18' E 004°19'5 4.7
2016-Jun-23 07:33N 51°15' E 004°24'0 0.1
2016-Jun-23 05:33N 51°15' E 004°24'0 0.0
2016-Jun-23 04:33N 51°15' E 004°24'0 0.0
2016-Jun-23 03:33N 51°15' E 004°24'0 0.0
2016-Jun-23 02:33N 51°15' E 004°24'0 0.0
2016-Jun-23 01:33N 51°15' E 004°24'0 0.0
2016-Jun-23 00:33N 51°15' E 004°24'0 0.0
2016-Jun-22 23:33N 51°15' E 004°24'0 0.0
2016-Jun-22 22:33N 51°15' E 004°24'0 0.0
2016-Jun-22 21:33N 51°15' E 004°24'2 1.7
2016-Jun-22 20:33N 51°15' E 004°21'3 2.9
2016-Jun-22 19:33N 51°18' E 004°18'6 5.7
2016-Jun-22 18:33N 51°22' E 004°13'5 4.8
2016-Jun-22 17:34N 51°23' E 004°06'5 5.0
2016-Jun-22 16:32N 51°25' E 003°58'7 7.3
2016-Jun-22 15:33N 51°21' E 003°50'1 0.9
2016-Jun-22 14:34N 51°20' E 003°49'2 1.8
2016-Jun-22 13:33N 51°18' E 003°50'0 0.1
2016-Jun-22 12:33N 51°18' E 003°50'0 0.0
2016-Jun-22 11:34N 51°18' E 003°50'0 0.0
2016-Jun-22 10:33N 51°18' E 003°50'0 0.0
2016-Jun-22 09:34N 51°18' E 003°50'0 0.0
2016-Jun-22 08:34N 51°18' E 003°50'0 0.0
2016-Jun-22 07:34N 51°18' E 003°50'0 0.0
2016-Jun-22 06:34N 51°18' E 003°50'0 0.1
2016-Jun-22 05:33N 51°18' E 003°50'0 0.0
2016-Jun-22 04:33N 51°18' E 003°50'0 0.0
2016-Jun-22 03:33N 51°18' E 003°50'0 0.0
2016-Jun-22 02:33N 51°18' E 003°50'0 0.0
2016-Jun-22 01:33N 51°18' E 003°50'0 0.0
2016-Jun-22 00:33N 51°18' E 003°50'0 0.0
2016-Jun-21 23:33N 51°18' E 003°50'2 2.1
2016-Jun-21 22:34N 51°20' E 003°49'0 0.3
2016-Jun-21 21:33N 51°20' E 003°49'10 9.5
2016-Jun-21 20:33N 51°27' E 004°01'5 4.9
2016-Jun-21 19:33N 51°32' E 004°00'26 5.2
2016-Jun-21 14:26N 51°43' E 004°39'7 8.5
2016-Jun-21 13:34N 51°41' E 004°50'1 1.4
2016-Jun-21 12:34N 51°40' E 004°51'0 0.0
2016-Jun-21 11:34N 51°40' E 004°51'0 0.0
2016-Jun-21 10:34N 51°40' E 004°51'0 0.0
2016-Jun-21 09:33N 51°40' E 004°51'0 0.0
2016-Jun-21 08:34N 51°40' E 004°51'0 0.0
2016-Jun-21 07:34N 51°40' E 004°51'0 0.0
2016-Jun-21 04:21N 51°40' E 004°51'0 0.0
2016-Jun-21 03:18N 51°40' E 004°51'0 0.0
2016-Jun-21 02:13N 51°40' E 004°51'1 1.3
2016-Jun-21 01:34N 51°41' E 004°51'13 6.5
2016-Jun-20 23:34N 51°45' E 005°11'7 7.2
2016-Jun-20 22:33N 51°47' E 005°22'11 5.3
2016-Jun-20 20:33N 51°49' E 005°39'5 4.7
2016-Jun-20 19:34N 51°46' E 005°45'  
2016-Jun-18 04:33N 51°39' E 006°36'2 1.7
2016-Jun-18 03:10N 51°37' E 006°36'0 0.0
2016-Jun-18 02:26N 51°37' E 006°36'0 0.0
2016-Jun-18 01:30N 51°37' E 006°36'0 0.0
2016-Jun-18 00:31N 51°37' E 006°36'0 0.0
2016-Jun-17 23:34N 51°37' E 006°36'0 0.0
2016-Jun-17 22:33N 51°37' E 006°36'0 0.0
2016-Jun-17 21:32N 51°37' E 006°36'0 0.0
2016-Jun-17 20:33N 51°37' E 006°36'4 4.1
2016-Jun-17 19:33N 51°34' E 006°41'21 6.9
2016-Jun-17 16:33N 51°14' E 006°44'22 7.0
2016-Jun-17 13:29N 50°54' E 006°59'6 5.9
2016-Jun-17 12:31N 50°49' E 007°02'9 9.4
2016-Jun-17 11:33N 50°42' E 007°10'  
Track history (hours):
 
Tides and Currents Weather Stations Pressure Air Temp Water Temp Dewpoint Dewpoint Depression Visibility Wind Speed Wind Dir Waves Ship Positions

Love Boat

Last reported at 2016-Jun-26 15:33 UTC. Time now 2016-Jun-26 15:38 UTC.
Position N 50°35' E 005°24'.

Length 110 m.

Type: Ship. MMSI: 205386190.

Date/timePositionNaut miles runAvg speedWind from/ knotsBaromVisibWave heightAir tempDewpointWater temp
2016-Jun-26 15:33N 50°35' E 005°24'0 0.0
2016-Jun-26 14:33N 50°35' E 005°24'0 0.0
2016-Jun-26 13:27N 50°35' E 005°24'0 0.0
2016-Jun-26 12:32N 50°35' E 005°24'0 0.0
2016-Jun-26 11:32N 50°35' E 005°24'0 0.0
2016-Jun-26 10:27N 50°35' E 005°24'0 0.0
2016-Jun-26 09:33N 50°35' E 005°24'0 0.0
2016-Jun-26 08:32N 50°35' E 005°24'0 0.0
2016-Jun-26 07:33N 50°35' E 005°24'1 0.0
2016-Jun-25 17:24N 50°35' E 005°24'0 0.0
2016-Jun-25 15:23N 50°35' E 005°24'0 0.0
2016-Jun-25 14:21N 50°35' E 005°24'0 0.0
2016-Jun-25 13:32N 50°35' E 005°24'0 0.0
2016-Jun-25 12:19N 50°35' E 005°24'0 0.0
2016-Jun-25 11:33N 50°35' E 005°24'0 0.0
2016-Jun-25 10:30N 50°35' E 005°24'0 0.0
2016-Jun-25 09:31N 50°35' E 005°24'0 0.0
2016-Jun-25 08:14N 50°35' E 005°24'0 0.0
2016-Jun-25 07:31N 50°35' E 005°24'0 0.0
2016-Jun-25 06:30N 50°35' E 005°24'0 0.0
2016-Jun-25 04:29N 50°35' E 005°24'0 0.0
2016-Jun-25 03:31N 50°35' E 005°24'0 0.0
2016-Jun-25 02:31N 50°35' E 005°24'0 0.0
2016-Jun-25 01:32N 50°35' E 005°24'0 0.0
2016-Jun-24 23:33N 50°35' E 005°24'0 0.0
2016-Jun-24 22:30N 50°35' E 005°24'0 0.0
2016-Jun-24 21:08N 50°35' E 005°24'0 0.0
2016-Jun-24 19:33N 50°35' E 005°24'0 0.0
2016-Jun-24 18:33N 50°35' E 005°24'0 0.0
2016-Jun-24 17:25N 50°35' E 005°24'0 0.0
2016-Jun-24 15:33N 50°35' E 005°24'0 0.0
2016-Jun-24 14:30N 50°35' E 005°24'0 0.0
2016-Jun-24 13:32N 50°35' E 005°24'0 0.0
2016-Jun-24 12:27N 50°35' E 005°24'0 0.0
2016-Jun-24 11:29N 50°35' E 005°24'0 0.0
2016-Jun-24 10:32N 50°35' E 005°24'0 0.0
2016-Jun-24 09:33N 50°35' E 005°24'0 0.0
2016-Jun-24 08:33N 50°35' E 005°24'0 0.3
2016-Jun-24 07:30N 50°35' E 005°25'9 3.0
2016-Jun-24 04:32N 50°39' E 005°37'45 2.8
2016-Jun-23 12:11N 51°11' E 004°45'6 6.4
2016-Jun-23 11:18N 51°12' E 004°37'4 3.3
2016-Jun-23 10:12N 51°14' E 004°31'3 4.8
2016-Jun-23 09:33N 51°14' E 004°26'6 6.0
2016-Jun-23 08:33N 51°18' E 004°19'5 4.7
2016-Jun-23 07:33N 51°15' E 004°24'0 0.1
2016-Jun-23 05:33N 51°15' E 004°24'0 0.0
2016-Jun-23 04:33N 51°15' E 004°24'0 0.0
2016-Jun-23 03:33N 51°15' E 004°24'0 0.0
2016-Jun-23 02:33N 51°15' E 004°24'0 0.0
2016-Jun-23 01:33N 51°15' E 004°24'0 0.0
2016-Jun-23 00:33N 51°15' E 004°24'0 0.0
2016-Jun-22 23:33N 51°15' E 004°24'0 0.0
2016-Jun-22 22:33N 51°15' E 004°24'0 0.0
2016-Jun-22 21:33N 51°15' E 004°24'2 1.7
2016-Jun-22 20:33N 51°15' E 004°21'3 2.9
2016-Jun-22 19:33N 51°18' E 004°18'6 5.7
2016-Jun-22 18:33N 51°22' E 004°13'5 4.8
2016-Jun-22 17:34N 51°23' E 004°06'5 5.0
2016-Jun-22 16:32N 51°25' E 003°58'7 7.3
2016-Jun-22 15:33N 51°21' E 003°50'1 0.9
2016-Jun-22 14:34N 51°20' E 003°49'2 1.8
2016-Jun-22 13:33N 51°18' E 003°50'0 0.1
2016-Jun-22 12:33N 51°18' E 003°50'0 0.0
2016-Jun-22 11:34N 51°18' E 003°50'0 0.0
2016-Jun-22 10:33N 51°18' E 003°50'0 0.0
2016-Jun-22 09:34N 51°18' E 003°50'0 0.0
2016-Jun-22 08:34N 51°18' E 003°50'0 0.0
2016-Jun-22 07:34N 51°18' E 003°50'0 0.0
2016-Jun-22 06:34N 51°18' E 003°50'0 0.1
2016-Jun-22 05:33N 51°18' E 003°50'0 0.0
2016-Jun-22 04:33N 51°18' E 003°50'0 0.0
2016-Jun-22 03:33N 51°18' E 003°50'0 0.0
2016-Jun-22 02:33N 51°18' E 003°50'0 0.0
2016-Jun-22 01:33N 51°18' E 003°50'0 0.0
2016-Jun-22 00:33N 51°18' E 003°50'0 0.0
2016-Jun-21 23:33N 51°18' E 003°50'2 2.1
2016-Jun-21 22:34N 51°20' E 003°49'0 0.3
2016-Jun-21 21:33N 51°20' E 003°49'10 9.5
2016-Jun-21 20:33N 51°27' E 004°01'5 4.9
2016-Jun-21 19:33N 51°32' E 004°00'26 5.2
2016-Jun-21 14:26N 51°43' E 004°39'7 8.5
2016-Jun-21 13:34N 51°41' E 004°50'1 1.4
2016-Jun-21 12:34N 51°40' E 004°51'0 0.0
2016-Jun-21 11:34N 51°40' E 004°51'0 0.0
2016-Jun-21 10:34N 51°40' E 004°51'0 0.0
2016-Jun-21 09:33N 51°40' E 004°51'0 0.0
2016-Jun-21 08:34N 51°40' E 004°51'0 0.0
2016-Jun-21 07:34N 51°40' E 004°51'0 0.0
2016-Jun-21 04:21N 51°40' E 004°51'0 0.0
2016-Jun-21 03:18N 51°40' E 004°51'0 0.0
2016-Jun-21 02:13N 51°40' E 004°51'1 1.3
2016-Jun-21 01:34N 51°41' E 004°51'13 6.5
2016-Jun-20 23:34N 51°45' E 005°11'7 7.2
2016-Jun-20 22:33N 51°47' E 005°22'11 5.3
2016-Jun-20 20:33N 51°49' E 005°39'5 4.7
2016-Jun-20 19:34N 51°46' E 005°45'  
2016-Jun-18 04:33N 51°39' E 006°36'2 1.7
2016-Jun-18 03:10N 51°37' E 006°36'0 0.0
2016-Jun-18 02:26N 51°37' E 006°36'0 0.0
2016-Jun-18 01:30N 51°37' E 006°36'0 0.0
2016-Jun-18 00:31N 51°37' E 006°36'0 0.0
2016-Jun-17 23:34N 51°37' E 006°36'0 0.0
2016-Jun-17 22:33N 51°37' E 006°36'0 0.0
2016-Jun-17 21:32N 51°37' E 006°36'0 0.0
2016-Jun-17 20:33N 51°37' E 006°36'4 4.1
2016-Jun-17 19:33N 51°34' E 006°41'21 6.9
2016-Jun-17 16:33N 51°14' E 006°44'22 7.0
2016-Jun-17 13:29N 50°54' E 006°59'6 5.9
2016-Jun-17 12:31N 50°49' E 007°02'9 9.4
2016-Jun-17 11:33N 50°42' E 007°10'  

Dump ship's entire track history